Sea Thames — V2BV1 — position and weather

sailwx.info

Track history (hours):
 
Tides and Currents Weather Stations Pressure Air Temp Water Temp Dewpoint Dewpoint Depression Visibility Wind Speed Wind Dir Waves Ship Positions

Sea Thames

Last reported at 2018-Jun-18 03:50 UTC. Time now 2018-Jun-25 14:17 UTC.
Position N 55°03' E 019°51'.

Length 87 m; draft 3.2 m.

Type: Ship. MMSI: 304933000.

Date/timePositionNaut miles runAvg speedWind from/ knotsBaromVisibWave heightAir tempDewpointWater temp
2018-Jun-18 03:50N 55°03' E 019°51'6 8.5
2018-Jun-18 03:08N 54°58' E 019°45'1 8.3
2018-Jun-18 02:57N 54°57' E 019°44'4 8.4
2018-Jun-18 02:29N 54°53' E 019°41'5 8.4
2018-Jun-18 01:53N 54°48' E 019°39'9 7.3
2018-Jun-18 00:43N 54°41' E 019°47'2 8.4
2018-Jun-18 00:30N 54°40' E 019°49'4 7.5
2018-Jun-18 00:00N 54°38' E 019°55'0 0.0
2018-Jun-17 07:42N 54°38' E 019°55'0 0.0
2018-Jun-17 07:30N 54°38' E 019°55'2 3.4
2018-Jun-17 07:00N 54°39' E 019°52'3 5.4
2018-Jun-17 06:30N 54°39' E 019°48'0 0.1
2018-Jun-17 05:58N 54°39' E 019°48'0 0.0
2018-Jun-17 05:29N 54°39' E 019°48'0 0.0
2018-Jun-17 04:57N 54°39' E 019°48'0 0.0
2018-Jun-17 04:29N 54°39' E 019°48'0 0.0
2018-Jun-17 03:57N 54°39' E 019°48'0 0.0
2018-Jun-17 03:30N 54°39' E 019°48'0 0.0
2018-Jun-17 02:58N 54°39' E 019°48'0 0.0
2018-Jun-17 02:25N 54°39' E 019°48'0 0.0
2018-Jun-17 02:00N 54°39' E 019°48'0 0.0
2018-Jun-17 01:29N 54°39' E 019°48'0 0.0
2018-Jun-17 00:56N 54°39' E 019°48'0 0.0
2018-Jun-17 00:30N 54°39' E 019°48'0 0.0
2018-Jun-16 23:54N 54°39' E 019°48'0 0.0
2018-Jun-16 23:24N 54°39' E 019°48'0 0.0
2018-Jun-16 23:00N 54°39' E 019°48'0 0.0
2018-Jun-16 22:27N 54°39' E 019°48'0 0.0
2018-Jun-16 21:59N 54°39' E 019°48'0 0.0
2018-Jun-16 21:30N 54°39' E 019°48'0 0.0
2018-Jun-16 20:59N 54°39' E 019°48'0 0.0
2018-Jun-16 20:28N 54°39' E 019°48'0 0.0
2018-Jun-16 19:55N 54°39' E 019°48'0 0.0
2018-Jun-16 19:23N 54°39' E 019°48'0 0.0
2018-Jun-16 18:58N 54°39' E 019°48'0 0.0
2018-Jun-16 18:29N 54°39' E 019°48'0 0.0
2018-Jun-16 17:55N 54°39' E 019°48'0 0.0
2018-Jun-16 17:29N 54°39' E 019°48'0 0.0
2018-Jun-16 16:54N 54°39' E 019°48'0 0.0
2018-Jun-16 16:28N 54°39' E 019°48'0 0.0
2018-Jun-16 13:57N 54°39' E 019°48'1 1.3
2018-Jun-16 13:29N 54°40' E 019°48'3 6.8
2018-Jun-16 13:00N 54°42' E 019°43'4 8.3
2018-Jun-16 12:29N 54°44' E 019°37'4 8.1
2018-Jun-16 11:58N 54°46' E 019°30'4 8.3
2018-Jun-16 11:30N 54°47' E 019°24'4 8.2
2018-Jun-16 11:00N 54°49' E 019°17'4 8.2
2018-Jun-16 10:30N 54°50' E 019°10'4 8.2
2018-Jun-16 10:00N 54°51' E 019°03'4 8.0
2018-Jun-16 09:31N 54°53' E 018°57'4 8.0
2018-Jun-16 09:00N 54°54' E 018°50'4 8.0
2018-Jun-16 08:30N 54°55' E 018°44'4 7.9
2018-Jun-16 08:01N 54°56' E 018°37'4 8.0
2018-Jun-16 07:30N 54°57' E 018°30'4 8.0
2018-Jun-16 07:00N 54°57' E 018°23'5 8.2
2018-Jun-16 06:23N 54°57' E 018°15'3 8.2
2018-Jun-16 06:00N 54°57' E 018°09'5 8.1
2018-Jun-16 05:23N 54°56' E 018°01'6 8.1
2018-Jun-16 04:35N 54°55' E 017°50'1 8.0
2018-Jun-16 04:30N 54°55' E 017°48'4 8.0
2018-Jun-16 04:00N 54°54' E 017°42'4 8.1
2018-Jun-16 03:29N 54°54' E 017°34'170 8.1
2018-Jun-15 06:20N 54°43' E 012°39'14 8.6
2018-Jun-15 04:45N 54°35' E 012°20'2 8.0
2018-Jun-15 04:30N 54°33' E 012°18'4 8.6
2018-Jun-15 04:00N 54°29' E 012°15'4 8.3
2018-Jun-15 03:30N 54°26' E 012°12'4 8.0
2018-Jun-15 03:00N 54°24' E 012°05'5 9.2
2018-Jun-15 02:30N 54°24' E 011°58'17 9.9
2018-Jun-15 00:46N 54°29' E 011°30'3 9.7
2018-Jun-15 00:25N 54°31' E 011°24'4 9.0
2018-Jun-15 00:00N 54°32' E 011°19'4 9.0
2018-Jun-14 23:30N 54°34' E 011°12'4 8.4
2018-Jun-14 23:00N 54°35' E 011°04'5 8.5
2018-Jun-14 22:25N 54°35' E 010°56'4 8.5
2018-Jun-14 22:00N 54°34' E 010°50'4 8.4
2018-Jun-14 21:30N 54°34' E 010°42'4 8.2
2018-Jun-14 21:00N 54°33' E 010°35'31 6.3
2018-Jun-14 16:07N 54°21' E 009°46'1 8.4
2018-Jun-14 16:00N 54°21' E 009°45'4 7.8
2018-Jun-14 15:30N 54°18' E 009°41'3 5.7
2018-Jun-14 15:00N 54°16' E 009°37'3 6.5
2018-Jun-14 14:30N 54°13' E 009°35'4 8.2
2018-Jun-14 14:00N 54°11' E 009°29'4 8.2
2018-Jun-14 13:30N 54°09' E 009°22'5 7.5
2018-Jun-14 12:54N 54°05' E 009°19'3 6.4
2018-Jun-14 12:30N 54°03' E 009°18'0 0.0
2018-Jun-14 12:00N 54°03' E 009°18'0 0.5
2018-Jun-14 11:27N 54°02' E 009°18'2 5.3
2018-Jun-14 11:01N 54°00' E 009°18'4 7.9
2018-Jun-14 10:31N 53°57' E 009°14'4 7.9
2018-Jun-14 10:00N 53°54' E 009°09'0 0.8
2018-Jun-14 09:31N 53°53' E 009°09'2 4.6
2018-Jun-14 09:00N 53°53' E 009°05'2 4.6
2018-Jun-14 08:30N 53°51' E 009°02'3 6.7
2018-Jun-14 08:00N 53°51' E 008°56'3 6.3
2018-Jun-14 07:30N 53°50' E 008°51'3 5.8
2018-Jun-14 07:01N 53°51' E 008°46'4 5.4
2018-Jun-14 06:20N 53°53' E 008°42'2 5.6
2018-Jun-14 05:55N 53°55' E 008°40'122 7.5
2018-Jun-13 13:35N 53°32' E 005°18'1 6.9
2018-Jun-13 13:29N 53°31' E 005°17'3 6.9
2018-Jun-13 12:59N 53°31' E 005°11'3 6.7
2018-Jun-13 12:30N 53°29' E 005°06'3 6.8
2018-Jun-13 12:00N 53°28' E 005°01'3 6.7
2018-Jun-13 11:30N 53°27' E 004°56'45 6.2
2018-Jun-13 04:13N 52°49' E 004°13'3 8.3
2018-Jun-13 03:53N 52°47' E 004°10'17 8.6
2018-Jun-13 01:54N 52°35' E 003°51'8 9.0
2018-Jun-13 01:02N 52°30' E 003°41'4 8.9
2018-Jun-13 00:36N 52°27' E 003°37'2 8.7
2018-Jun-13 00:20N 52°25' E 003°34'3 8.4
2018-Jun-12 23:59N 52°23' E 003°31'5 8.3
2018-Jun-12 23:25N 52°19' E 003°26'4 7.1
2018-Jun-12 22:50N 52°15' E 003°26'3 6.8
2018-Jun-12 22:25N 52°12' E 003°27'4 6.7
2018-Jun-12 21:54N 52°09' E 003°29'3 6.9
2018-Jun-12 21:29N 52°08' E 003°33'4 7.6
2018-Jun-12 21:00N 52°06' E 003°39'4 8.0
2018-Jun-12 20:30N 52°06' E 003°45'3 7.0
2018-Jun-12 20:00N 52°03' E 003°49'4 7.3
2018-Jun-12 19:30N 52°01' E 003°54'4 8.0
2018-Jun-12 19:00N 52°00' E 004°00'5 9.5
2018-Jun-12 18:30N 51°59' E 004°07'511.0
2018-Jun-12 18:00N 51°55' E 004°14'4 8.9
2018-Jun-12 17:30N 51°54' E 004°21'0 0.5
2018-Jun-12 16:58N 51°54' E 004°21'0 0.0
2018-Jun-12 16:28N 51°54' E 004°21'0 0.0
2018-Jun-12 15:53N 51°54' E 004°21'0 0.0
2018-Jun-12 15:30N 51°54' E 004°21'0 0.0
2018-Jun-12 15:00N 51°54' E 004°21'0 0.0
2018-Jun-12 14:27N 51°54' E 004°21'0 0.0
2018-Jun-12 13:56N 51°54' E 004°21'0 0.0
2018-Jun-12 13:21N 51°54' E 004°21'0 0.0
2018-Jun-12 12:58N 51°54' E 004°21'0 0.0
2018-Jun-12 12:28N 51°54' E 004°21'0 0.0
2018-Jun-12 11:56N 51°54' E 004°21'0 0.0
2018-Jun-12 11:30N 51°54' E 004°21'0 0.0
2018-Jun-12 10:51N 51°54' E 004°21'0 0.0
2018-Jun-12 10:25N 51°54' E 004°21'0 0.0
2018-Jun-12 09:48N 51°54' E 004°21'0 0.0
2018-Jun-12 09:24N 51°54' E 004°21'0 0.0
2018-Jun-12 08:50N 51°54' E 004°21'0 0.0
2018-Jun-12 08:04N 51°54' E 004°21'0 0.0
2018-Jun-12 07:48N 51°54' E 004°21'0 0.0
2018-Jun-12 07:29N 51°54' E 004°21'0 0.0
2018-Jun-12 06:58N 51°54' E 004°21'0 0.0
2018-Jun-12 06:26N 51°54' E 004°21'0 0.0
2018-Jun-12 05:55N 51°54' E 004°21'0 0.0
2018-Jun-12 05:23N 51°54' E 004°21'0 0.0
2018-Jun-12 05:00N 51°54' E 004°21'0 0.0
2018-Jun-12 04:28N 51°54' E 004°21'0 0.0
2018-Jun-12 03:56N 51°54' E 004°21'0 0.0
2018-Jun-12 03:28N 51°54' E 004°21'0 0.0
2018-Jun-12 02:58N 51°54' E 004°21'0 0.0
2018-Jun-12 02:27N 51°54' E 004°21'0 0.0
2018-Jun-12 01:56N 51°54' E 004°21'0 0.0
2018-Jun-12 01:29N 51°54' E 004°21'0 0.0
2018-Jun-12 00:59N 51°54' E 004°21'0 0.0
2018-Jun-12 00:29N 51°54' E 004°21'0 0.0
2018-Jun-11 23:53N 51°54' E 004°21'0 0.0
2018-Jun-11 23:29N 51°54' E 004°21'0 0.0
2018-Jun-11 22:58N 51°54' E 004°21'0 0.0
2018-Jun-11 22:28N 51°54' E 004°21'0 0.0
2018-Jun-11 21:45N 51°54' E 004°21'0 0.0
2018-Jun-11 21:29N 51°54' E 004°21'0 0.0
2018-Jun-11 20:58N 51°54' E 004°21'0 0.0
2018-Jun-11 20:25N 51°54' E 004°21'0 0.0
2018-Jun-11 19:55N 51°54' E 004°21'0 0.0
2018-Jun-11 19:24N 51°54' E 004°21'0 0.0
2018-Jun-11 19:00N 51°54' E 004°21'0 0.0
2018-Jun-11 18:28N 51°54' E 004°21'0 0.0
2018-Jun-11 17:38N 51°54' E 004°21'0 0.0
2018-Jun-11 17:30N 51°54' E 004°21'0 0.0
2018-Jun-11 16:59N 51°54' E 004°21'0 0.0
2018-Jun-11 16:28N 51°54' E 004°21'0 0.0
2018-Jun-11 15:55N 51°54' E 004°21'0 0.0
2018-Jun-11 15:24N 51°54' E 004°21'0 0.0
2018-Jun-11 15:00N 51°54' E 004°21'0 0.0
2018-Jun-11 14:28N 51°54' E 004°21'0 0.0
2018-Jun-11 13:55N 51°54' E 004°21'0 0.0
2018-Jun-11 13:15N 51°54' E 004°21'0 0.0
2018-Jun-11 12:59N 51°54' E 004°21'0 0.0
2018-Jun-11 12:25N 51°54' E 004°21'0 0.0
2018-Jun-11 11:56N 51°54' E 004°21'0 0.0
2018-Jun-11 11:29N 51°54' E 004°21'0 0.0
2018-Jun-11 10:57N 51°54' E 004°21'0 0.0
2018-Jun-11 10:25N 51°54' E 004°21'0 0.0
2018-Jun-11 09:53N 51°54' E 004°21'0 0.0
2018-Jun-11 09:30N 51°54' E 004°21'0 1.0
2018-Jun-11 09:00N 51°54' E 004°22'3 6.0
2018-Jun-11 08:30N 51°54' E 004°27'1 1.5
2018-Jun-11 07:53N 51°54' E 004°28'0 0.0
2018-Jun-11 07:30N 51°54' E 004°28'0 0.0
2018-Jun-11 06:59N 51°54' E 004°28'0 0.0
2018-Jun-11 06:29N 51°54' E 004°28'0 0.0
2018-Jun-11 05:54N 51°54' E 004°28'0 0.0
2018-Jun-11 05:24N 51°54' E 004°28'0 0.0
2018-Jun-11 04:58N 51°54' E 004°28'0 0.0
2018-Jun-11 04:25N 51°54' E 004°28'0 0.0
2018-Jun-11 03:58N 51°54' E 004°28'0 0.0
2018-Jun-11 03:23N 51°54' E 004°28'0 0.0
2018-Jun-11 02:59N 51°54' E 004°28'0 0.0
2018-Jun-11 02:30N 51°54' E 004°28'0 0.0
2018-Jun-11 01:55N 51°54' E 004°28'0 0.0
2018-Jun-11 01:29N 51°54' E 004°28'0 0.0
2018-Jun-11 00:57N 51°54' E 004°28'0 0.0
2018-Jun-11 00:26N 51°54' E 004°28'0 0.0
2018-Jun-10 23:53N 51°54' E 004°28'0 0.0
2018-Jun-10 23:30N 51°54' E 004°28'0 0.0
2018-Jun-10 22:59N 51°54' E 004°28'0 0.0
2018-Jun-10 22:28N 51°54' E 004°28'0 0.0
2018-Jun-10 21:57N 51°54' E 004°28'0 0.0
2018-Jun-10 21:24N 51°54' E 004°28'0 0.0
2018-Jun-10 20:59N 51°54' E 004°28'0 0.0
2018-Jun-10 20:28N 51°54' E 004°28'0 0.0
2018-Jun-10 19:53N 51°54' E 004°28'0 0.0
2018-Jun-10 19:29N 51°54' E 004°28'0 0.0
2018-Jun-10 18:58N 51°54' E 004°28'0 0.0
2018-Jun-10 18:25N 51°54' E 004°28'0 0.0
2018-Jun-10 17:54N 51°54' E 004°28'0 0.0
2018-Jun-10 17:23N 51°54' E 004°28'0 0.0
2018-Jun-10 17:00N 51°54' E 004°28'0 0.0
2018-Jun-10 16:29N 51°54' E 004°28'0 0.0
2018-Jun-10 15:54N 51°54' E 004°28'0 0.0
2018-Jun-10 15:30N 51°54' E 004°28'0 0.0
2018-Jun-10 14:59N 51°54' E 004°28'0 0.0
2018-Jun-10 14:27N 51°54' E 004°28'0 0.0
2018-Jun-10 13:29N 51°54' E 004°28'0 0.0
2018-Jun-10 12:58N 51°54' E 004°28'0 0.0
2018-Jun-10 12:26N 51°54' E 004°28'0 0.0
2018-Jun-10 11:54N 51°54' E 004°28'0 0.0
2018-Jun-10 11:30N 51°54' E 004°28'0 0.0
2018-Jun-10 10:58N 51°54' E 004°28'0 0.0
2018-Jun-10 10:27N 51°54' E 004°28'0 0.0
2018-Jun-10 09:58N 51°54' E 004°28'0 0.0
2018-Jun-10 09:29N 51°54' E 004°28'0 0.0
2018-Jun-10 08:59N 51°54' E 004°28'0 0.0
2018-Jun-10 08:30N 51°54' E 004°28'0 0.0
2018-Jun-10 07:56N 51°54' E 004°28'0 0.0
2018-Jun-10 07:29N 51°54' E 004°28'0 0.0
2018-Jun-10 06:58N 51°54' E 004°28'0 0.0
2018-Jun-10 06:26N 51°54' E 004°28'0 0.0
2018-Jun-10 05:53N 51°54' E 004°28'0 0.0
2018-Jun-10 05:29N 51°54' E 004°28'0 0.0
2018-Jun-10 04:59N 51°54' E 004°28'0 0.0
2018-Jun-10 04:27N 51°54' E 004°28'0 0.0
2018-Jun-10 03:53N 51°54' E 004°28'0 0.0
2018-Jun-10 03:24N 51°54' E 004°28'0 0.0
2018-Jun-10 02:58N 51°54' E 004°28'0 0.0
2018-Jun-10 02:28N 51°54' E 004°28'0 0.0
2018-Jun-10 01:54N 51°54' E 004°28'0 0.0
2018-Jun-10 01:30N 51°54' E 004°28'0 0.0
2018-Jun-10 00:59N 51°54' E 004°28'0 0.0
2018-Jun-10 00:29N 51°54' E 004°28'0 0.0
2018-Jun-09 23:54N 51°54' E 004°28'0 0.0
2018-Jun-09 23:30N 51°54' E 004°28'0 0.0
2018-Jun-09 22:59N 51°54' E 004°28'0 0.0
2018-Jun-09 22:25N 51°54' E 004°28'0 0.0
2018-Jun-09 21:55N 51°54' E 004°28'0 0.0
2018-Jun-09 21:24N 51°54' E 004°28'0 0.0
2018-Jun-09 20:58N 51°54' E 004°28'0 0.0
2018-Jun-09 20:27N 51°54' E 004°28'0 0.0
2018-Jun-09 19:56N 51°54' E 004°28'0 0.0
2018-Jun-09 19:24N 51°54' E 004°28'0 0.0
2018-Jun-09 18:58N 51°54' E 004°28'0 0.0
2018-Jun-09 18:26N 51°54' E 004°28'0 0.0
2018-Jun-09 17:55N 51°54' E 004°28'0 0.0
2018-Jun-09 17:23N 51°54' E 004°28'0 0.0
2018-Jun-09 17:00N 51°54' E 004°28'0 0.0
2018-Jun-09 16:27N 51°54' E 004°28'0 0.0
2018-Jun-09 15:53N 51°54' E 004°28'0 0.0
2018-Jun-09 14:57N 51°54' E 004°28'0 0.0
2018-Jun-09 14:26N 51°54' E 004°28'0 0.0
2018-Jun-09 13:59N 51°54' E 004°28'0 0.0
2018-Jun-09 13:29N 51°54' E 004°28'0 0.0
2018-Jun-09 12:57N 51°54' E 004°28'0 0.0
2018-Jun-09 12:25N 51°54' E 004°28'0 0.0
2018-Jun-09 11:53N 51°54' E 004°28'0 0.0
2018-Jun-09 11:29N 51°54' E 004°28'0 0.0
2018-Jun-09 10:58N 51°54' E 004°28'0 0.0
2018-Jun-09 10:28N 51°54' E 004°28'0 0.0
2018-Jun-09 09:58N 51°54' E 004°28'0 0.0
2018-Jun-09 09:24N 51°54' E 004°28'0 0.0
2018-Jun-09 08:57N 51°54' E 004°28'0 0.0
2018-Jun-09 08:29N 51°54' E 004°28'0 0.0
2018-Jun-09 07:57N 51°54' E 004°28'0 0.0
2018-Jun-09 07:30N 51°54' E 004°28'0 0.0
2018-Jun-09 06:59N 51°54' E 004°28'0 0.0
2018-Jun-09 06:29N 51°54' E 004°28'0 0.0
2018-Jun-09 05:56N 51°54' E 004°28'0 0.0
2018-Jun-09 05:29N 51°54' E 004°28'0 0.0
2018-Jun-09 05:00N 51°54' E 004°28'0 0.0
2018-Jun-09 04:26N 51°54' E 004°28'0 0.0
2018-Jun-09 03:54N 51°54' E 004°28'0 0.0
2018-Jun-09 03:30N 51°54' E 004°28'0 0.0
2018-Jun-09 02:57N 51°54' E 004°28'0 0.0
2018-Jun-09 02:26N 51°54' E 004°28'0 0.0
2018-Jun-09 01:56N 51°54' E 004°28'0 0.0
2018-Jun-09 01:28N 51°54' E 004°28'0 0.0
2018-Jun-09 00:58N 51°54' E 004°28'0 0.0
2018-Jun-09 00:27N 51°54' E 004°28'0 0.0
2018-Jun-08 23:56N 51°54' E 004°28'0 0.0
2018-Jun-08 23:24N 51°54' E 004°28'0 0.0
2018-Jun-08 23:00N 51°54' E 004°28'0 0.0
2018-Jun-08 22:26N 51°54' E 004°28'0 0.0
2018-Jun-08 21:54N 51°54' E 004°28'0 0.0
2018-Jun-08 21:23N 51°54' E 004°28'0 0.0
2018-Jun-08 20:59N 51°54' E 004°28'0 0.0
2018-Jun-08 20:26N 51°54' E 004°28'0 0.0
2018-Jun-08 19:58N 51°54' E 004°28'0 0.0
2018-Jun-08 19:25N 51°54' E 004°28'0 0.0
2018-Jun-08 18:59N 51°54' E 004°28'0 0.0
2018-Jun-08 18:30N 51°54' E 004°28'1 2.1
2018-Jun-08 18:01N 51°55' E 004°30'3 6.1
2018-Jun-08 17:31N 51°54' E 004°34'5 9.8
2018-Jun-08 17:00N 51°51' E 004°40'3 7.0
2018-Jun-08 16:30N 51°49' E 004°45'4 8.9
2018-Jun-08 16:00N 51°49' E 004°52'1 2.0
2018-Jun-08 15:30N 51°48' E 004°52'1 1.0
2018-Jun-08 14:44N 51°49' E 004°53'0 0.0
2018-Jun-08 14:29N 51°49' E 004°53'0 0.0
2018-Jun-08 12:58N 51°49' E 004°53'0 0.0
2018-Jun-08 11:57N 51°49' E 004°53'0 0.0
2018-Jun-08 11:24N 51°49' E 004°53'0 0.0
2018-Jun-08 10:55N 51°49' E 004°53'0 0.0
2018-Jun-08 10:13N 51°49' E 004°53'0 0.0
2018-Jun-08 09:41N 51°49' E 004°53'0 0.0
2018-Jun-08 09:30N 51°49' E 004°53'0 0.0
2018-Jun-08 07:56N 51°49' E 004°53'0 0.0
2018-Jun-08 07:27N 51°49' E 004°53'0 0.0
2018-Jun-08 06:57N 51°49' E 004°53'0 0.0
2018-Jun-08 06:28N 51°49' E 004°53'0 0.0
2018-Jun-08 05:46N 51°49' E 004°53'0 0.0
2018-Jun-08 05:25N 51°49' E 004°53'  
Track history (hours):
 
Tides and Currents Weather Stations Pressure Air Temp Water Temp Dewpoint Dewpoint Depression Visibility Wind Speed Wind Dir Waves Ship Positions

Sea Thames

Last reported at 2018-Jun-18 03:50 UTC. Time now 2018-Jun-25 14:17 UTC.
Position N 55°03' E 019°51'.

Length 87 m; draft 3.2 m.

Type: Ship. MMSI: 304933000.

Date/timePositionNaut miles runAvg speedWind from/ knotsBaromVisibWave heightAir tempDewpointWater temp
2018-Jun-18 03:50N 55°03' E 019°51'6 8.5
2018-Jun-18 03:08N 54°58' E 019°45'1 8.3
2018-Jun-18 02:57N 54°57' E 019°44'4 8.4
2018-Jun-18 02:29N 54°53' E 019°41'5 8.4
2018-Jun-18 01:53N 54°48' E 019°39'9 7.3
2018-Jun-18 00:43N 54°41' E 019°47'2 8.4
2018-Jun-18 00:30N 54°40' E 019°49'4 7.5
2018-Jun-18 00:00N 54°38' E 019°55'0 0.0
2018-Jun-17 07:42N 54°38' E 019°55'0 0.0
2018-Jun-17 07:30N 54°38' E 019°55'2 3.4
2018-Jun-17 07:00N 54°39' E 019°52'3 5.4
2018-Jun-17 06:30N 54°39' E 019°48'0 0.1
2018-Jun-17 05:58N 54°39' E 019°48'0 0.0
2018-Jun-17 05:29N 54°39' E 019°48'0 0.0
2018-Jun-17 04:57N 54°39' E 019°48'0 0.0
2018-Jun-17 04:29N 54°39' E 019°48'0 0.0
2018-Jun-17 03:57N 54°39' E 019°48'0 0.0
2018-Jun-17 03:30N 54°39' E 019°48'0 0.0
2018-Jun-17 02:58N 54°39' E 019°48'0 0.0
2018-Jun-17 02:25N 54°39' E 019°48'0 0.0
2018-Jun-17 02:00N 54°39' E 019°48'0 0.0
2018-Jun-17 01:29N 54°39' E 019°48'0 0.0
2018-Jun-17 00:56N 54°39' E 019°48'0 0.0
2018-Jun-17 00:30N 54°39' E 019°48'0 0.0
2018-Jun-16 23:54N 54°39' E 019°48'0 0.0
2018-Jun-16 23:24N 54°39' E 019°48'0 0.0
2018-Jun-16 23:00N 54°39' E 019°48'0 0.0
2018-Jun-16 22:27N 54°39' E 019°48'0 0.0
2018-Jun-16 21:59N 54°39' E 019°48'0 0.0
2018-Jun-16 21:30N 54°39' E 019°48'0 0.0
2018-Jun-16 20:59N 54°39' E 019°48'0 0.0
2018-Jun-16 20:28N 54°39' E 019°48'0 0.0
2018-Jun-16 19:55N 54°39' E 019°48'0 0.0
2018-Jun-16 19:23N 54°39' E 019°48'0 0.0
2018-Jun-16 18:58N 54°39' E 019°48'0 0.0
2018-Jun-16 18:29N 54°39' E 019°48'0 0.0
2018-Jun-16 17:55N 54°39' E 019°48'0 0.0
2018-Jun-16 17:29N 54°39' E 019°48'0 0.0
2018-Jun-16 16:54N 54°39' E 019°48'0 0.0
2018-Jun-16 16:28N 54°39' E 019°48'0 0.0
2018-Jun-16 13:57N 54°39' E 019°48'1 1.3
2018-Jun-16 13:29N 54°40' E 019°48'3 6.8
2018-Jun-16 13:00N 54°42' E 019°43'4 8.3
2018-Jun-16 12:29N 54°44' E 019°37'4 8.1
2018-Jun-16 11:58N 54°46' E 019°30'4 8.3
2018-Jun-16 11:30N 54°47' E 019°24'4 8.2
2018-Jun-16 11:00N 54°49' E 019°17'4 8.2
2018-Jun-16 10:30N 54°50' E 019°10'4 8.2
2018-Jun-16 10:00N 54°51' E 019°03'4 8.0
2018-Jun-16 09:31N 54°53' E 018°57'4 8.0
2018-Jun-16 09:00N 54°54' E 018°50'4 8.0
2018-Jun-16 08:30N 54°55' E 018°44'4 7.9
2018-Jun-16 08:01N 54°56' E 018°37'4 8.0
2018-Jun-16 07:30N 54°57' E 018°30'4 8.0
2018-Jun-16 07:00N 54°57' E 018°23'5 8.2
2018-Jun-16 06:23N 54°57' E 018°15'3 8.2
2018-Jun-16 06:00N 54°57' E 018°09'5 8.1
2018-Jun-16 05:23N 54°56' E 018°01'6 8.1
2018-Jun-16 04:35N 54°55' E 017°50'1 8.0
2018-Jun-16 04:30N 54°55' E 017°48'4 8.0
2018-Jun-16 04:00N 54°54' E 017°42'4 8.1
2018-Jun-16 03:29N 54°54' E 017°34'170 8.1
2018-Jun-15 06:20N 54°43' E 012°39'14 8.6
2018-Jun-15 04:45N 54°35' E 012°20'2 8.0
2018-Jun-15 04:30N 54°33' E 012°18'4 8.6
2018-Jun-15 04:00N 54°29' E 012°15'4 8.3
2018-Jun-15 03:30N 54°26' E 012°12'4 8.0
2018-Jun-15 03:00N 54°24' E 012°05'5 9.2
2018-Jun-15 02:30N 54°24' E 011°58'17 9.9
2018-Jun-15 00:46N 54°29' E 011°30'3 9.7
2018-Jun-15 00:25N 54°31' E 011°24'4 9.0
2018-Jun-15 00:00N 54°32' E 011°19'4 9.0
2018-Jun-14 23:30N 54°34' E 011°12'4 8.4
2018-Jun-14 23:00N 54°35' E 011°04'5 8.5
2018-Jun-14 22:25N 54°35' E 010°56'4 8.5
2018-Jun-14 22:00N 54°34' E 010°50'4 8.4
2018-Jun-14 21:30N 54°34' E 010°42'4 8.2
2018-Jun-14 21:00N 54°33' E 010°35'31 6.3
2018-Jun-14 16:07N 54°21' E 009°46'1 8.4
2018-Jun-14 16:00N 54°21' E 009°45'4 7.8
2018-Jun-14 15:30N 54°18' E 009°41'3 5.7
2018-Jun-14 15:00N 54°16' E 009°37'3 6.5
2018-Jun-14 14:30N 54°13' E 009°35'4 8.2
2018-Jun-14 14:00N 54°11' E 009°29'4 8.2
2018-Jun-14 13:30N 54°09' E 009°22'5 7.5
2018-Jun-14 12:54N 54°05' E 009°19'3 6.4
2018-Jun-14 12:30N 54°03' E 009°18'0 0.0
2018-Jun-14 12:00N 54°03' E 009°18'0 0.5
2018-Jun-14 11:27N 54°02' E 009°18'2 5.3
2018-Jun-14 11:01N 54°00' E 009°18'4 7.9
2018-Jun-14 10:31N 53°57' E 009°14'4 7.9
2018-Jun-14 10:00N 53°54' E 009°09'0 0.8
2018-Jun-14 09:31N 53°53' E 009°09'2 4.6
2018-Jun-14 09:00N 53°53' E 009°05'2 4.6
2018-Jun-14 08:30N 53°51' E 009°02'3 6.7
2018-Jun-14 08:00N 53°51' E 008°56'3 6.3
2018-Jun-14 07:30N 53°50' E 008°51'3 5.8
2018-Jun-14 07:01N 53°51' E 008°46'4 5.4
2018-Jun-14 06:20N 53°53' E 008°42'2 5.6
2018-Jun-14 05:55N 53°55' E 008°40'122 7.5
2018-Jun-13 13:35N 53°32' E 005°18'1 6.9
2018-Jun-13 13:29N 53°31' E 005°17'3 6.9
2018-Jun-13 12:59N 53°31' E 005°11'3 6.7
2018-Jun-13 12:30N 53°29' E 005°06'3 6.8
2018-Jun-13 12:00N 53°28' E 005°01'3 6.7
2018-Jun-13 11:30N 53°27' E 004°56'45 6.2
2018-Jun-13 04:13N 52°49' E 004°13'3 8.3
2018-Jun-13 03:53N 52°47' E 004°10'17 8.6
2018-Jun-13 01:54N 52°35' E 003°51'8 9.0
2018-Jun-13 01:02N 52°30' E 003°41'4 8.9
2018-Jun-13 00:36N 52°27' E 003°37'2 8.7
2018-Jun-13 00:20N 52°25' E 003°34'3 8.4
2018-Jun-12 23:59N 52°23' E 003°31'5 8.3
2018-Jun-12 23:25N 52°19' E 003°26'4 7.1
2018-Jun-12 22:50N 52°15' E 003°26'3 6.8
2018-Jun-12 22:25N 52°12' E 003°27'4 6.7
2018-Jun-12 21:54N 52°09' E 003°29'3 6.9
2018-Jun-12 21:29N 52°08' E 003°33'4 7.6
2018-Jun-12 21:00N 52°06' E 003°39'4 8.0
2018-Jun-12 20:30N 52°06' E 003°45'3 7.0
2018-Jun-12 20:00N 52°03' E 003°49'4 7.3
2018-Jun-12 19:30N 52°01' E 003°54'4 8.0
2018-Jun-12 19:00N 52°00' E 004°00'5 9.5
2018-Jun-12 18:30N 51°59' E 004°07'511.0
2018-Jun-12 18:00N 51°55' E 004°14'4 8.9
2018-Jun-12 17:30N 51°54' E 004°21'0 0.5
2018-Jun-12 16:58N 51°54' E 004°21'0 0.0
2018-Jun-12 16:28N 51°54' E 004°21'0 0.0
2018-Jun-12 15:53N 51°54' E 004°21'0 0.0
2018-Jun-12 15:30N 51°54' E 004°21'0 0.0
2018-Jun-12 15:00N 51°54' E 004°21'0 0.0
2018-Jun-12 14:27N 51°54' E 004°21'0 0.0
2018-Jun-12 13:56N 51°54' E 004°21'0 0.0
2018-Jun-12 13:21N 51°54' E 004°21'0 0.0
2018-Jun-12 12:58N 51°54' E 004°21'0 0.0
2018-Jun-12 12:28N 51°54' E 004°21'0 0.0
2018-Jun-12 11:56N 51°54' E 004°21'0 0.0
2018-Jun-12 11:30N 51°54' E 004°21'0 0.0
2018-Jun-12 10:51N 51°54' E 004°21'0 0.0
2018-Jun-12 10:25N 51°54' E 004°21'0 0.0
2018-Jun-12 09:48N 51°54' E 004°21'0 0.0
2018-Jun-12 09:24N 51°54' E 004°21'0 0.0
2018-Jun-12 08:50N 51°54' E 004°21'0 0.0
2018-Jun-12 08:04N 51°54' E 004°21'0 0.0
2018-Jun-12 07:48N 51°54' E 004°21'0 0.0
2018-Jun-12 07:29N 51°54' E 004°21'0 0.0
2018-Jun-12 06:58N 51°54' E 004°21'0 0.0
2018-Jun-12 06:26N 51°54' E 004°21'0 0.0
2018-Jun-12 05:55N 51°54' E 004°21'0 0.0
2018-Jun-12 05:23N 51°54' E 004°21'0 0.0
2018-Jun-12 05:00N 51°54' E 004°21'0 0.0
2018-Jun-12 04:28N 51°54' E 004°21'0 0.0
2018-Jun-12 03:56N 51°54' E 004°21'0 0.0
2018-Jun-12 03:28N 51°54' E 004°21'0 0.0
2018-Jun-12 02:58N 51°54' E 004°21'0 0.0
2018-Jun-12 02:27N 51°54' E 004°21'0 0.0
2018-Jun-12 01:56N 51°54' E 004°21'0 0.0
2018-Jun-12 01:29N 51°54' E 004°21'0 0.0
2018-Jun-12 00:59N 51°54' E 004°21'0 0.0
2018-Jun-12 00:29N 51°54' E 004°21'0 0.0
2018-Jun-11 23:53N 51°54' E 004°21'0 0.0
2018-Jun-11 23:29N 51°54' E 004°21'0 0.0
2018-Jun-11 22:58N 51°54' E 004°21'0 0.0
2018-Jun-11 22:28N 51°54' E 004°21'0 0.0
2018-Jun-11 21:45N 51°54' E 004°21'0 0.0
2018-Jun-11 21:29N 51°54' E 004°21'0 0.0
2018-Jun-11 20:58N 51°54' E 004°21'0 0.0
2018-Jun-11 20:25N 51°54' E 004°21'0 0.0
2018-Jun-11 19:55N 51°54' E 004°21'0 0.0
2018-Jun-11 19:24N 51°54' E 004°21'0 0.0
2018-Jun-11 19:00N 51°54' E 004°21'0 0.0
2018-Jun-11 18:28N 51°54' E 004°21'0 0.0
2018-Jun-11 17:38N 51°54' E 004°21'0 0.0
2018-Jun-11 17:30N 51°54' E 004°21'0 0.0
2018-Jun-11 16:59N 51°54' E 004°21'0 0.0
2018-Jun-11 16:28N 51°54' E 004°21'0 0.0
2018-Jun-11 15:55N 51°54' E 004°21'0 0.0
2018-Jun-11 15:24N 51°54' E 004°21'0 0.0
2018-Jun-11 15:00N 51°54' E 004°21'0 0.0
2018-Jun-11 14:28N 51°54' E 004°21'0 0.0
2018-Jun-11 13:55N 51°54' E 004°21'0 0.0
2018-Jun-11 13:15N 51°54' E 004°21'0 0.0
2018-Jun-11 12:59N 51°54' E 004°21'0 0.0
2018-Jun-11 12:25N 51°54' E 004°21'0 0.0
2018-Jun-11 11:56N 51°54' E 004°21'0 0.0
2018-Jun-11 11:29N 51°54' E 004°21'0 0.0
2018-Jun-11 10:57N 51°54' E 004°21'0 0.0
2018-Jun-11 10:25N 51°54' E 004°21'0 0.0
2018-Jun-11 09:53N 51°54' E 004°21'0 0.0
2018-Jun-11 09:30N 51°54' E 004°21'0 1.0
2018-Jun-11 09:00N 51°54' E 004°22'3 6.0
2018-Jun-11 08:30N 51°54' E 004°27'1 1.5
2018-Jun-11 07:53N 51°54' E 004°28'0 0.0
2018-Jun-11 07:30N 51°54' E 004°28'0 0.0
2018-Jun-11 06:59N 51°54' E 004°28'0 0.0
2018-Jun-11 06:29N 51°54' E 004°28'0 0.0
2018-Jun-11 05:54N 51°54' E 004°28'0 0.0
2018-Jun-11 05:24N 51°54' E 004°28'0 0.0
2018-Jun-11 04:58N 51°54' E 004°28'0 0.0
2018-Jun-11 04:25N 51°54' E 004°28'0 0.0
2018-Jun-11 03:58N 51°54' E 004°28'0 0.0
2018-Jun-11 03:23N 51°54' E 004°28'0 0.0
2018-Jun-11 02:59N 51°54' E 004°28'0 0.0
2018-Jun-11 02:30N 51°54' E 004°28'0 0.0
2018-Jun-11 01:55N 51°54' E 004°28'0 0.0
2018-Jun-11 01:29N 51°54' E 004°28'0 0.0
2018-Jun-11 00:57N 51°54' E 004°28'0 0.0
2018-Jun-11 00:26N 51°54' E 004°28'0 0.0
2018-Jun-10 23:53N 51°54' E 004°28'0 0.0
2018-Jun-10 23:30N 51°54' E 004°28'0 0.0
2018-Jun-10 22:59N 51°54' E 004°28'0 0.0
2018-Jun-10 22:28N 51°54' E 004°28'0 0.0
2018-Jun-10 21:57N 51°54' E 004°28'0 0.0
2018-Jun-10 21:24N 51°54' E 004°28'0 0.0
2018-Jun-10 20:59N 51°54' E 004°28'0 0.0
2018-Jun-10 20:28N 51°54' E 004°28'0 0.0
2018-Jun-10 19:53N 51°54' E 004°28'0 0.0
2018-Jun-10 19:29N 51°54' E 004°28'0 0.0
2018-Jun-10 18:58N 51°54' E 004°28'0 0.0
2018-Jun-10 18:25N 51°54' E 004°28'0 0.0
2018-Jun-10 17:54N 51°54' E 004°28'0 0.0
2018-Jun-10 17:23N 51°54' E 004°28'0 0.0
2018-Jun-10 17:00N 51°54' E 004°28'0 0.0
2018-Jun-10 16:29N 51°54' E 004°28'0 0.0
2018-Jun-10 15:54N 51°54' E 004°28'0 0.0
2018-Jun-10 15:30N 51°54' E 004°28'0 0.0
2018-Jun-10 14:59N 51°54' E 004°28'0 0.0
2018-Jun-10 14:27N 51°54' E 004°28'0 0.0
2018-Jun-10 13:29N 51°54' E 004°28'0 0.0
2018-Jun-10 12:58N 51°54' E 004°28'0 0.0
2018-Jun-10 12:26N 51°54' E 004°28'0 0.0
2018-Jun-10 11:54N 51°54' E 004°28'0 0.0
2018-Jun-10 11:30N 51°54' E 004°28'0 0.0
2018-Jun-10 10:58N 51°54' E 004°28'0 0.0
2018-Jun-10 10:27N 51°54' E 004°28'0 0.0
2018-Jun-10 09:58N 51°54' E 004°28'0 0.0
2018-Jun-10 09:29N 51°54' E 004°28'0 0.0
2018-Jun-10 08:59N 51°54' E 004°28'0 0.0
2018-Jun-10 08:30N 51°54' E 004°28'0 0.0
2018-Jun-10 07:56N 51°54' E 004°28'0 0.0
2018-Jun-10 07:29N 51°54' E 004°28'0 0.0
2018-Jun-10 06:58N 51°54' E 004°28'0 0.0
2018-Jun-10 06:26N 51°54' E 004°28'0 0.0
2018-Jun-10 05:53N 51°54' E 004°28'0 0.0
2018-Jun-10 05:29N 51°54' E 004°28'0 0.0
2018-Jun-10 04:59N 51°54' E 004°28'0 0.0
2018-Jun-10 04:27N 51°54' E 004°28'0 0.0
2018-Jun-10 03:53N 51°54' E 004°28'0 0.0
2018-Jun-10 03:24N 51°54' E 004°28'0 0.0
2018-Jun-10 02:58N 51°54' E 004°28'0 0.0
2018-Jun-10 02:28N 51°54' E 004°28'0 0.0
2018-Jun-10 01:54N 51°54' E 004°28'0 0.0
2018-Jun-10 01:30N 51°54' E 004°28'0 0.0
2018-Jun-10 00:59N 51°54' E 004°28'0 0.0
2018-Jun-10 00:29N 51°54' E 004°28'0 0.0
2018-Jun-09 23:54N 51°54' E 004°28'0 0.0
2018-Jun-09 23:30N 51°54' E 004°28'0 0.0
2018-Jun-09 22:59N 51°54' E 004°28'0 0.0
2018-Jun-09 22:25N 51°54' E 004°28'0 0.0
2018-Jun-09 21:55N 51°54' E 004°28'0 0.0
2018-Jun-09 21:24N 51°54' E 004°28'0 0.0
2018-Jun-09 20:58N 51°54' E 004°28'0 0.0
2018-Jun-09 20:27N 51°54' E 004°28'0 0.0
2018-Jun-09 19:56N 51°54' E 004°28'0 0.0
2018-Jun-09 19:24N 51°54' E 004°28'0 0.0
2018-Jun-09 18:58N 51°54' E 004°28'0 0.0
2018-Jun-09 18:26N 51°54' E 004°28'0 0.0
2018-Jun-09 17:55N 51°54' E 004°28'0 0.0
2018-Jun-09 17:23N 51°54' E 004°28'0 0.0
2018-Jun-09 17:00N 51°54' E 004°28'0 0.0
2018-Jun-09 16:27N 51°54' E 004°28'0 0.0
2018-Jun-09 15:53N 51°54' E 004°28'0 0.0
2018-Jun-09 14:57N 51°54' E 004°28'0 0.0
2018-Jun-09 14:26N 51°54' E 004°28'0 0.0
2018-Jun-09 13:59N 51°54' E 004°28'0 0.0
2018-Jun-09 13:29N 51°54' E 004°28'0 0.0
2018-Jun-09 12:57N 51°54' E 004°28'0 0.0
2018-Jun-09 12:25N 51°54' E 004°28'0 0.0
2018-Jun-09 11:53N 51°54' E 004°28'0 0.0
2018-Jun-09 11:29N 51°54' E 004°28'0 0.0
2018-Jun-09 10:58N 51°54' E 004°28'0 0.0
2018-Jun-09 10:28N 51°54' E 004°28'0 0.0
2018-Jun-09 09:58N 51°54' E 004°28'0 0.0
2018-Jun-09 09:24N 51°54' E 004°28'0 0.0
2018-Jun-09 08:57N 51°54' E 004°28'0 0.0
2018-Jun-09 08:29N 51°54' E 004°28'0 0.0
2018-Jun-09 07:57N 51°54' E 004°28'0 0.0
2018-Jun-09 07:30N 51°54' E 004°28'0 0.0
2018-Jun-09 06:59N 51°54' E 004°28'0 0.0
2018-Jun-09 06:29N 51°54' E 004°28'0 0.0
2018-Jun-09 05:56N 51°54' E 004°28'0 0.0
2018-Jun-09 05:29N 51°54' E 004°28'0 0.0
2018-Jun-09 05:00N 51°54' E 004°28'0 0.0
2018-Jun-09 04:26N 51°54' E 004°28'0 0.0
2018-Jun-09 03:54N 51°54' E 004°28'0 0.0
2018-Jun-09 03:30N 51°54' E 004°28'0 0.0
2018-Jun-09 02:57N 51°54' E 004°28'0 0.0
2018-Jun-09 02:26N 51°54' E 004°28'0 0.0
2018-Jun-09 01:56N 51°54' E 004°28'0 0.0
2018-Jun-09 01:28N 51°54' E 004°28'0 0.0
2018-Jun-09 00:58N 51°54' E 004°28'0 0.0
2018-Jun-09 00:27N 51°54' E 004°28'0 0.0
2018-Jun-08 23:56N 51°54' E 004°28'0 0.0
2018-Jun-08 23:24N 51°54' E 004°28'0 0.0
2018-Jun-08 23:00N 51°54' E 004°28'0 0.0
2018-Jun-08 22:26N 51°54' E 004°28'0 0.0
2018-Jun-08 21:54N 51°54' E 004°28'0 0.0
2018-Jun-08 21:23N 51°54' E 004°28'0 0.0
2018-Jun-08 20:59N 51°54' E 004°28'0 0.0
2018-Jun-08 20:26N 51°54' E 004°28'0 0.0
2018-Jun-08 19:58N 51°54' E 004°28'0 0.0
2018-Jun-08 19:25N 51°54' E 004°28'0 0.0
2018-Jun-08 18:59N 51°54' E 004°28'0 0.0
2018-Jun-08 18:30N 51°54' E 004°28'1 2.1
2018-Jun-08 18:01N 51°55' E 004°30'3 6.1
2018-Jun-08 17:31N 51°54' E 004°34'5 9.8
2018-Jun-08 17:00N 51°51' E 004°40'3 7.0
2018-Jun-08 16:30N 51°49' E 004°45'4 8.9
2018-Jun-08 16:00N 51°49' E 004°52'1 2.0
2018-Jun-08 15:30N 51°48' E 004°52'1 1.0
2018-Jun-08 14:44N 51°49' E 004°53'0 0.0
2018-Jun-08 14:29N 51°49' E 004°53'0 0.0
2018-Jun-08 12:58N 51°49' E 004°53'0 0.0
2018-Jun-08 11:57N 51°49' E 004°53'0 0.0
2018-Jun-08 11:24N 51°49' E 004°53'0 0.0
2018-Jun-08 10:55N 51°49' E 004°53'0 0.0
2018-Jun-08 10:13N 51°49' E 004°53'0 0.0
2018-Jun-08 09:41N 51°49' E 004°53'0 0.0
2018-Jun-08 09:30N 51°49' E 004°53'0 0.0
2018-Jun-08 07:56N 51°49' E 004°53'0 0.0
2018-Jun-08 07:27N 51°49' E 004°53'0 0.0
2018-Jun-08 06:57N 51°49' E 004°53'0 0.0
2018-Jun-08 06:28N 51°49' E 004°53'0 0.0
2018-Jun-08 05:46N 51°49' E 004°53'0 0.0
2018-Jun-08 05:25N 51°49' E 004°53'  

Dump ship's entire track history